PWSweather.com
Personal Weather Stations
Station Observations
DW1039
Liberty & Fairfield Townships, Hamilton, OH 45011

Liberty & Fairfield TownshipsHamilton, OH 45011

Lat: 39.3933, Lon: -84.477

Elevation: 780

Station Type: Davis Vantage Pro2 (Daytime Fan Aspirated)

http://www.lfweathercenter.com/

High Low Average
Temperature 47.3°F8.5°C 26.1°F-3.3°C 36.7°F2.6°C
Dew Point 43.9°F6.6°C 21.5°F-5.8°C 30.7°F-0.7°C
Winds 21.0 mph 33.8 kmh Calm Calm 7.0 mph S11.3 kmh S
Wind Gusts 32.0 mph51.5 kmh 4.0 mph6.4 kmh 14.0 mph22.5 kmh
Humidity 92% 59% 79%
Pressure 30.35 in1027.8 mb 29.98 in1015.2 mb -
Precipitation 0.00 in0.0 mm - -
Hour Temp Dew Point Humidity Winds Wind Gusts Pressure Precip Precip Rate Daily Precip Total
12:00 AM 26.6°F-3.0°C 21.3°F-5.9°C 80% 3.0 mph SE4.8 kmh SE 10.0 mph16.1 kmh 30.40 in1029.5 mb 0.00 in0.0 mm 0.00 in/hr0.0 mm/hr 0.00 in0.0 mm
12:10 AM 26.8°F-2.9°C 21.5°F-5.8°C 80% 2.0 mph SE3.2 kmh SE 11.0 mph17.7 kmh 30.39 in1029.1 mb 0.00 in0.0 mm 0.00 in/hr0.0 mm/hr 0.00 in0.0 mm
12:20 AM 26.8°F-2.9°C 21.5°F-5.8°C 80% 7.0 mph SE11.3 kmh SE 11.0 mph17.7 kmh 30.38 in1028.8 mb 0.00 in0.0 mm 0.00 in/hr0.0 mm/hr 0.00 in0.0 mm
12:30 AM 26.7°F-2.9°C 21.4°F-5.9°C 80% 6.0 mph SSE9.7 kmh SSE 9.0 mph14.5 kmh 30.38 in1028.8 mb 0.00 in0.0 mm 0.00 in/hr0.0 mm/hr 0.00 in0.0 mm
12:40 AM 26.5°F-3.1°C 21.5°F-5.8°C 81% 5.0 mph SE8.0 kmh SE 9.0 mph14.5 kmh 30.37 in1028.4 mb 0.00 in0.0 mm 0.00 in/hr0.0 mm/hr 0.00 in0.0 mm
12:50 AM 26.6°F-3.0°C 21.6°F-5.8°C 81% 6.0 mph SE9.7 kmh SE 9.0 mph14.5 kmh 30.36 in1028.1 mb 0.00 in0.0 mm 0.00 in/hr0.0 mm/hr 0.00 in0.0 mm
01:01 AM 26.5°F-3.1°C 21.5°F-5.8°C 81% 9.0 mph SE14.5 kmh SE 14.0 mph22.5 kmh 30.35 in1027.8 mb 0.00 in0.0 mm 0.00 in/hr0.0 mm/hr 0.00 in0.0 mm
01:10 AM 26.5°F-3.1°C 21.5°F-5.8°C 81% 4.0 mph SE6.4 kmh SE 13.0 mph20.9 kmh 30.34 in1027.4 mb 0.00 in0.0 mm 0.00 in/hr0.0 mm/hr 0.00 in0.0 mm
01:20 AM 26.5°F-3.1°C 21.8°F-5.7°C 82% 4.0 mph SSE6.4 kmh SSE 11.0 mph17.7 kmh 30.34 in1027.4 mb 0.00 in0.0 mm 0.00 in/hr0.0 mm/hr 0.00 in0.0 mm
01:30 AM 26.6°F-3.0°C 21.9°F-5.6°C 82% 9.0 mph SE14.5 kmh SE 12.0 mph19.3 kmh 30.33 in1027.1 mb 0.00 in0.0 mm 0.00 in/hr0.0 mm/hr 0.00 in0.0 mm
01:40 AM 26.6°F-3.0°C 21.9°F-5.6°C 82% 6.0 mph SSE9.7 kmh SSE 10.0 mph16.1 kmh 30.33 in1027.1 mb 0.00 in0.0 mm 0.00 in/hr0.0 mm/hr 0.00 in0.0 mm
01:50 AM 26.6°F-3.0°C 22.1°F-5.5°C 83% 7.0 mph SE11.3 kmh SE 13.0 mph20.9 kmh 30.32 in1026.8 mb 0.00 in0.0 mm 0.00 in/hr0.0 mm/hr 0.00 in0.0 mm
02:00 AM 26.6°F-3.0°C 22.1°F-5.5°C 83% Calm Calm 10.0 mph16.1 kmh 30.32 in1026.8 mb 0.00 in0.0 mm 0.00 in/hr0.0 mm/hr 0.00 in0.0 mm
02:10 AM 26.5°F-3.1°C 22.1°F-5.5°C 83% 6.0 mph SE9.7 kmh SE 10.0 mph16.1 kmh 30.31 in1026.4 mb 0.00 in0.0 mm 0.00 in/hr0.0 mm/hr 0.00 in0.0 mm
02:20 AM 26.5°F-3.1°C 22.1°F-5.5°C 83% 5.0 mph SSE8.0 kmh SSE 9.0 mph14.5 kmh 30.31 in1026.4 mb 0.00 in0.0 mm 0.00 in/hr0.0 mm/hr 0.00 in0.0 mm
02:30 AM 26.4°F-3.1°C 22.0°F-5.6°C 83% 3.0 mph SSE4.8 kmh SSE 7.0 mph11.3 kmh 30.31 in1026.4 mb 0.00 in0.0 mm 0.00 in/hr0.0 mm/hr 0.00 in0.0 mm
02:40 AM 26.5°F-3.1°C 22.1°F-5.5°C 83% 4.0 mph S6.4 kmh S 6.0 mph9.7 kmh 30.31 in1026.4 mb 0.00 in0.0 mm 0.00 in/hr0.0 mm/hr 0.00 in0.0 mm
02:50 AM 26.1°F-3.3°C 21.9°F-5.6°C 84% 4.0 mph S6.4 kmh S 6.0 mph9.7 kmh 30.30 in1026.1 mb 0.00 in0.0 mm 0.00 in/hr0.0 mm/hr 0.00 in0.0 mm
03:00 AM 26.4°F-3.1°C 22.2°F-5.4°C 84% Calm Calm 5.0 mph8.0 kmh 30.30 in1026.1 mb 0.00 in0.0 mm 0.00 in/hr0.0 mm/hr 0.00 in0.0 mm
03:10 AM 26.6°F-3.0°C 22.4°F-5.3°C 84% 2.0 mph S3.2 kmh S 7.0 mph11.3 kmh 30.30 in1026.1 mb 0.00 in0.0 mm 0.00 in/hr0.0 mm/hr 0.00 in0.0 mm
03:20 AM 26.7°F-2.9°C 22.5°F-5.3°C 84% Calm Calm 7.0 mph11.3 kmh 30.30 in1026.1 mb 0.00 in0.0 mm 0.00 in/hr0.0 mm/hr 0.00 in0.0 mm
03:30 AM 26.5°F-3.1°C 22.3°F-5.4°C 84% Calm Calm 4.0 mph6.4 kmh 30.29 in1025.7 mb 0.00 in0.0 mm 0.00 in/hr0.0 mm/hr 0.00 in0.0 mm
03:40 AM 26.8°F-2.9°C 22.6°F-5.2°C 84% 5.0 mph S8.0 kmh S 6.0 mph9.7 kmh 30.30 in1026.1 mb 0.00 in0.0 mm 0.00 in/hr0.0 mm/hr 0.00 in0.0 mm
03:50 AM 26.3°F-3.2°C 22.1°F-5.5°C 84% 5.0 mph S8.0 kmh S 5.0 mph8.0 kmh 30.30 in1026.1 mb 0.00 in0.0 mm 0.00 in/hr0.0 mm/hr 0.00 in0.0 mm
04:00 AM 26.3°F-3.2°C 22.1°F-5.5°C 84% 3.0 mph SE4.8 kmh SE 4.0 mph6.4 kmh 30.29 in1025.7 mb 0.00 in0.0 mm 0.00 in/hr0.0 mm/hr 0.00 in0.0 mm
04:10 AM 26.6°F-3.0°C 22.7°F-5.2°C 85% Calm Calm 4.0 mph6.4 kmh 30.29 in1025.7 mb 0.00 in0.0 mm 0.00 in/hr0.0 mm/hr 0.00 in0.0 mm
04:20 AM 26.1°F-3.3°C 22.2°F-5.4°C 85% 3.0 mph S4.8 kmh S 5.0 mph8.0 kmh 30.29 in1025.7 mb 0.00 in0.0 mm 0.00 in/hr0.0 mm/hr 0.00 in0.0 mm
04:30 AM 26.2°F-3.2°C 22.3°F-5.4°C 85% 4.0 mph SSE6.4 kmh SSE 5.0 mph8.0 kmh 30.29 in1025.7 mb 0.00 in0.0 mm 0.00 in/hr0.0 mm/hr 0.00 in0.0 mm
04:40 AM 26.7°F-2.9°C 22.8°F-5.1°C 85% 2.0 mph S3.2 kmh S 11.0 mph17.7 kmh 30.29 in1025.7 mb 0.00 in0.0 mm 0.00 in/hr0.0 mm/hr 0.00 in0.0 mm
04:50 AM 27.6°F-2.4°C 23.4°F-4.8°C 84% 6.0 mph SSE9.7 kmh SSE 14.0 mph22.5 kmh 30.28 in1025.4 mb 0.00 in0.0 mm 0.00 in/hr0.0 mm/hr 0.00 in0.0 mm
05:01 AM 28.1°F-2.2°C 23.6°F-4.7°C 83% 5.0 mph SSE8.0 kmh SSE 12.0 mph19.3 kmh 30.28 in1025.4 mb 0.00 in0.0 mm 0.00 in/hr0.0 mm/hr 0.00 in0.0 mm
05:13 AM 28.0°F-2.2°C 23.5°F-4.7°C 83% 9.0 mph SSE14.5 kmh SSE 13.0 mph20.9 kmh 30.28 in1025.4 mb 0.00 in0.0 mm 0.00 in/hr0.0 mm/hr 0.00 in0.0 mm
05:22 AM 28.2°F-2.1°C 23.7°F-4.6°C 83% 7.0 mph SE11.3 kmh SE 14.0 mph22.5 kmh 30.27 in1025.1 mb 0.00 in0.0 mm 0.00 in/hr0.0 mm/hr 0.00 in0.0 mm
05:30 AM 28.2°F-2.1°C 23.7°F-4.6°C 83% 7.0 mph SE11.3 kmh SE 12.0 mph19.3 kmh 30.27 in1025.1 mb 0.00 in0.0 mm 0.00 in/hr0.0 mm/hr 0.00 in0.0 mm
05:41 AM 28.3°F-2.1°C 23.8°F-4.6°C 83% 6.0 mph SSE9.7 kmh SSE 11.0 mph17.7 kmh 30.27 in1025.1 mb 0.00 in0.0 mm 0.00 in/hr0.0 mm/hr 0.00 in0.0 mm
05:50 AM 28.1°F-2.2°C 23.6°F-4.7°C 83% 12.0 mph S19.3 kmh S 12.0 mph19.3 kmh 30.27 in1025.1 mb 0.00 in0.0 mm 0.00 in/hr0.0 mm/hr 0.00 in0.0 mm
06:01 AM 28.4°F-2.0°C 23.9°F-4.5°C 83% 1.0 mph S1.6 kmh S 12.0 mph19.3 kmh 30.26 in1024.7 mb 0.00 in0.0 mm 0.00 in/hr0.0 mm/hr 0.00 in0.0 mm
06:10 AM 28.3°F-2.1°C 23.8°F-4.6°C 83% 6.0 mph SE9.7 kmh SE 7.0 mph11.3 kmh 30.25 in1024.4 mb 0.00 in0.0 mm 0.00 in/hr0.0 mm/hr 0.00 in0.0 mm
06:20 AM 28.4°F-2.0°C 23.6°F-4.7°C 82% 3.0 mph S4.8 kmh S 11.0 mph17.7 kmh 30.25 in1024.4 mb 0.00 in0.0 mm 0.00 in/hr0.0 mm/hr 0.00 in0.0 mm
06:30 AM 28.5°F-1.9°C 23.7°F-4.6°C 82% 2.0 mph S3.2 kmh S 11.0 mph17.7 kmh 30.25 in1024.4 mb 0.00 in0.0 mm 0.00 in/hr0.0 mm/hr 0.00 in0.0 mm
06:40 AM 28.8°F-1.8°C 24.0°F-4.4°C 82% 4.0 mph SSE6.4 kmh SSE 9.0 mph14.5 kmh 30.25 in1024.4 mb 0.00 in0.0 mm 0.00 in/hr0.0 mm/hr 0.00 in0.0 mm
06:50 AM 29.1°F-1.6°C 24.0°F-4.4°C 81% 1.0 mph S1.6 kmh S 10.0 mph16.1 kmh 30.25 in1024.4 mb 0.00 in0.0 mm 0.00 in/hr0.0 mm/hr 0.00 in0.0 mm
07:00 AM 29.6°F-1.3°C 24.2°F-4.3°C 80% 5.0 mph S8.0 kmh S 10.0 mph16.1 kmh 30.24 in1024.0 mb 0.00 in0.0 mm 0.00 in/hr0.0 mm/hr 0.00 in0.0 mm
07:10 AM 29.7°F-1.3°C 24.3°F-4.3°C 80% 11.0 mph SSE17.7 kmh SSE 11.0 mph17.7 kmh 30.23 in1023.7 mb 0.00 in0.0 mm 0.00 in/hr0.0 mm/hr 0.00 in0.0 mm
07:20 AM 29.8°F-1.2°C 24.4°F-4.2°C 80% 6.0 mph SE9.7 kmh SE 11.0 mph17.7 kmh 30.23 in1023.7 mb 0.00 in0.0 mm 0.00 in/hr0.0 mm/hr 0.00 in0.0 mm
07:30 AM 29.9°F-1.2°C 24.5°F-4.2°C 80% 6.0 mph SE9.7 kmh SE 10.0 mph16.1 kmh 30.22 in1023.4 mb 0.00 in0.0 mm 0.00 in/hr0.0 mm/hr 0.00 in0.0 mm
07:40 AM 30.2°F-1.0°C 24.5°F-4.2°C 79% 4.0 mph SSE6.4 kmh SSE 13.0 mph20.9 kmh 30.22 in1023.4 mb 0.00 in0.0 mm 0.00 in/hr0.0 mm/hr 0.00 in0.0 mm
07:50 AM 30.5°F-0.8°C 24.8°F-4.0°C 79% 4.0 mph S6.4 kmh S 11.0 mph17.7 kmh 30.22 in1023.4 mb 0.00 in0.0 mm 0.00 in/hr0.0 mm/hr 0.00 in0.0 mm
08:00 AM 30.8°F-0.7°C 24.8°F-4.0°C 78% 5.0 mph S8.0 kmh S 13.0 mph20.9 kmh 30.21 in1023.0 mb 0.00 in0.0 mm 0.00 in/hr0.0 mm/hr 0.00 in0.0 mm
08:10 AM 31.0°F-0.6°C 24.7°F-4.1°C 77% 5.0 mph S8.0 kmh S 13.0 mph20.9 kmh 30.21 in1023.0 mb 0.00 in0.0 mm 0.00 in/hr0.0 mm/hr 0.00 in0.0 mm
08:20 AM 31.3°F-0.4°C 24.9°F-3.9°C 77% 5.0 mph S8.0 kmh S 12.0 mph19.3 kmh 30.21 in1023.0 mb 0.00 in0.0 mm 0.00 in/hr0.0 mm/hr 0.00 in0.0 mm
08:30 AM 31.8°F-0.1°C 25.1°F-3.8°C 76% 6.0 mph SSE9.7 kmh SSE 14.0 mph22.5 kmh 30.21 in1023.0 mb 0.00 in0.0 mm 0.00 in/hr0.0 mm/hr 0.00 in0.0 mm
09:00 AM 32.6°F0.3°C 25.3°F-3.7°C 74% 11.0 mph S17.7 kmh S 16.0 mph25.7 kmh 30.20 in1022.7 mb 0.00 in0.0 mm 0.00 in/hr0.0 mm/hr 0.00 in0.0 mm
09:10 AM 33.1°F0.6°C 25.4°F-3.7°C 73% 11.0 mph S17.7 kmh S 14.0 mph22.5 kmh 30.20 in1022.7 mb 0.00 in0.0 mm 0.00 in/hr0.0 mm/hr 0.00 in0.0 mm
09:20 AM 33.8°F1.0°C 25.7°F-3.5°C 72% 5.0 mph SSE8.0 kmh SSE 14.0 mph22.5 kmh 30.19 in1022.4 mb 0.00 in0.0 mm 0.00 in/hr0.0 mm/hr 0.00 in0.0 mm
09:30 AM 34.1°F1.2°C 26.0°F-3.3°C 72% 5.0 mph SE8.0 kmh SE 14.0 mph22.5 kmh 30.19 in1022.4 mb 0.00 in0.0 mm 0.00 in/hr0.0 mm/hr 0.00 in0.0 mm
09:40 AM 34.4°F1.3°C 26.0°F-3.3°C 71% 5.0 mph S8.0 kmh S 17.0 mph27.4 kmh 30.19 in1022.4 mb 0.00 in0.0 mm 0.00 in/hr0.0 mm/hr 0.00 in0.0 mm
09:50 AM 34.7°F1.5°C 26.3°F-3.2°C 71% 5.0 mph SE8.0 kmh SE 14.0 mph22.5 kmh 30.18 in1022.0 mb 0.00 in0.0 mm 0.00 in/hr0.0 mm/hr 0.00 in0.0 mm
10:00 AM 35.1°F1.7°C 26.3°F-3.2°C 70% 7.0 mph SE11.3 kmh SE 15.0 mph24.1 kmh 30.18 in1022.0 mb 0.00 in0.0 mm 0.00 in/hr0.0 mm/hr 0.00 in0.0 mm
10:10 AM 35.5°F1.9°C 26.7°F-2.9°C 70% 5.0 mph SE8.0 kmh SE 16.0 mph25.7 kmh 30.18 in1022.0 mb 0.00 in0.0 mm 0.00 in/hr0.0 mm/hr 0.00 in0.0 mm
10:20 AM 35.9°F2.2°C 26.7°F-2.9°C 69% 10.0 mph SE16.1 kmh SE 17.0 mph27.4 kmh 30.17 in1021.7 mb 0.00 in0.0 mm 0.00 in/hr0.0 mm/hr 0.00 in0.0 mm
10:30 AM 36.4°F2.4°C 26.9°F-2.8°C 68% 9.0 mph SSE14.5 kmh SSE 15.0 mph24.1 kmh 30.17 in1021.7 mb 0.00 in0.0 mm 0.00 in/hr0.0 mm/hr 0.00 in0.0 mm
10:40 AM 36.8°F2.7°C 27.2°F-2.7°C 68% 3.0 mph SSE4.8 kmh SSE 13.0 mph20.9 kmh 30.17 in1021.7 mb 0.00 in0.0 mm 0.00 in/hr0.0 mm/hr 0.00 in0.0 mm
10:50 AM 37.1°F2.8°C 27.2°F-2.7°C 67% 5.0 mph SSE8.0 kmh SSE 13.0 mph20.9 kmh 30.17 in1021.7 mb 0.00 in0.0 mm 0.00 in/hr0.0 mm/hr 0.00 in0.0 mm
11:00 AM 37.4°F3.0°C 27.5°F-2.5°C 67% 4.0 mph SSE6.4 kmh SSE 9.0 mph14.5 kmh 30.16 in1021.3 mb 0.00 in0.0 mm 0.00 in/hr0.0 mm/hr 0.00 in0.0 mm
11:10 AM 38.1°F3.4°C 28.1°F-2.2°C 67% Calm Calm 13.0 mph20.9 kmh 30.16 in1021.3 mb 0.00 in0.0 mm 0.00 in/hr0.0 mm/hr 0.00 in0.0 mm
11:20 AM 39.2°F4.0°C 28.8°F-1.8°C 66% 6.0 mph S9.7 kmh S 12.0 mph19.3 kmh 30.16 in1021.3 mb 0.00 in0.0 mm 0.00 in/hr0.0 mm/hr 0.00 in0.0 mm
11:30 AM 40.3°F4.6°C 28.7°F-1.8°C 63% 10.0 mph SW16.1 kmh SW 15.0 mph24.1 kmh 30.16 in1021.3 mb 0.00 in0.0 mm 0.00 in/hr0.0 mm/hr 0.00 in0.0 mm
11:40 AM 41.1°F5.1°C 29.1°F-1.6°C 62% 5.0 mph S8.0 kmh S 15.0 mph24.1 kmh 30.15 in1021.0 mb 0.00 in0.0 mm 0.00 in/hr0.0 mm/hr 0.00 in0.0 mm
11:50 AM 41.9°F5.5°C 29.9°F-1.2°C 62% 9.0 mph S14.5 kmh S 16.0 mph25.7 kmh 30.15 in1021.0 mb 0.00 in0.0 mm 0.00 in/hr0.0 mm/hr 0.00 in0.0 mm
12:00 PM 42.5°F5.8°C 30.0°F-1.1°C 61% 5.0 mph SE8.0 kmh SE 12.0 mph19.3 kmh 30.15 in1021.0 mb 0.00 in0.0 mm 0.00 in/hr0.0 mm/hr 0.00 in0.0 mm
12:10 PM 43.0°F6.1°C 30.5°F-0.8°C 61% 6.0 mph SSE9.7 kmh SSE 10.0 mph16.1 kmh 30.15 in1021.0 mb 0.00 in0.0 mm 0.00 in/hr0.0 mm/hr 0.00 in0.0 mm
12:20 PM 43.2°F6.2°C 30.3°F-0.9°C 60% 3.0 mph S4.8 kmh S 7.0 mph11.3 kmh 30.14 in1020.7 mb 0.00 in0.0 mm 0.00 in/hr0.0 mm/hr 0.00 in0.0 mm
12:30 PM 43.8°F6.6°C 30.8°F-0.7°C 60% 5.0 mph S8.0 kmh S 10.0 mph16.1 kmh 30.14 in1020.7 mb 0.00 in0.0 mm 0.00 in/hr0.0 mm/hr 0.00 in0.0 mm
12:40 PM 45.2°F7.3°C 31.7°F-0.2°C 59% 8.0 mph S12.9 kmh S 13.0 mph20.9 kmh 30.13 in1020.3 mb 0.00 in0.0 mm 0.00 in/hr0.0 mm/hr 0.00 in0.0 mm
12:50 PM 46.0°F7.8°C 32.5°F0.3°C 59% 3.0 mph SW4.8 kmh SW 16.0 mph25.7 kmh 30.13 in1020.3 mb 0.00 in0.0 mm 0.00 in/hr0.0 mm/hr 0.00 in0.0 mm
01:00 PM 47.0°F8.3°C 33.9°F1.1°C 60% 17.0 mph SSW27.4 kmh SSW 23.0 mph37.0 kmh 30.12 in1020.0 mb 0.00 in0.0 mm 0.00 in/hr0.0 mm/hr 0.00 in0.0 mm
01:10 PM 47.3°F8.5°C 35.4°F1.9°C 63% 9.0 mph SW14.5 kmh SW 30.0 mph48.3 kmh 30.12 in1020.0 mb 0.00 in0.0 mm 0.00 in/hr0.0 mm/hr 0.00 in0.0 mm
01:20 PM 47.1°F8.4°C 37.1°F2.8°C 68% 11.0 mph SSW17.7 kmh SSW 21.0 mph33.8 kmh 30.12 in1020.0 mb 0.00 in0.0 mm 0.00 in/hr0.0 mm/hr 0.00 in0.0 mm
01:30 PM 46.6°F8.1°C 38.4°F3.6°C 73% 19.0 mph S30.6 kmh S 25.0 mph40.2 kmh 30.11 in1019.6 mb 0.00 in0.0 mm 0.00 in/hr0.0 mm/hr 0.00 in0.0 mm
01:40 PM 46.0°F7.8°C 38.9°F3.8°C 76% 17.0 mph SW27.4 kmh SW 30.0 mph48.3 kmh 30.10 in1019.3 mb 0.00 in0.0 mm 0.00 in/hr0.0 mm/hr 0.00 in0.0 mm
01:50 PM 45.8°F7.7°C 39.0°F3.9°C 77% 16.0 mph SSW25.7 kmh SSW 32.0 mph51.5 kmh 30.09 in1019.0 mb 0.00 in0.0 mm 0.00 in/hr0.0 mm/hr 0.00 in0.0 mm
02:00 PM 45.8°F7.7°C 39.7°F4.3°C 79% 6.0 mph S9.7 kmh S 29.0 mph46.7 kmh 30.09 in1019.0 mb 0.00 in0.0 mm 0.00 in/hr0.0 mm/hr 0.00 in0.0 mm
02:10 PM 45.5°F7.5°C 39.7°F4.3°C 80% 16.0 mph SSW25.7 kmh SSW 24.0 mph38.6 kmh 30.08 in1018.6 mb 0.00 in0.0 mm 0.00 in/hr0.0 mm/hr 0.00 in0.0 mm
02:20 PM 45.4°F7.4°C 40.2°F4.6°C 82% 15.0 mph SSW24.1 kmh SSW 23.0 mph37.0 kmh 30.08 in1018.6 mb 0.00 in0.0 mm 0.00 in/hr0.0 mm/hr 0.00 in0.0 mm
02:30 PM 45.2°F7.3°C 40.4°F4.7°C 83% 21.0 mph SW33.8 kmh SW 31.0 mph49.9 kmh 30.07 in1018.3 mb 0.00 in0.0 mm 0.00 in/hr0.0 mm/hr 0.00 in0.0 mm
02:40 PM 45.1°F7.3°C 40.6°F4.8°C 84% 6.0 mph SW9.7 kmh SW 23.0 mph37.0 kmh 30.07 in1018.3 mb 0.00 in0.0 mm 0.00 in/hr0.0 mm/hr 0.00 in0.0 mm
02:50 PM 45.1°F7.3°C 40.9°F4.9°C 85% 15.0 mph SSW24.1 kmh SSW 19.0 mph30.6 kmh 30.06 in1017.9 mb 0.00 in0.0 mm 0.00 in/hr0.0 mm/hr 0.00 in0.0 mm
03:10 PM 45.0°F7.2°C 40.8°F4.9°C 85% 5.0 mph SSW8.0 kmh SSW 17.0 mph27.4 kmh 30.05 in1017.6 mb 0.00 in0.0 mm 0.00 in/hr0.0 mm/hr 0.00 in0.0 mm
03:20 PM 45.2°F7.3°C 41.0°F5.0°C 85% 6.0 mph S9.7 kmh S 21.0 mph33.8 kmh 30.04 in1017.3 mb 0.00 in0.0 mm 0.00 in/hr0.0 mm/hr 0.00 in0.0 mm
03:30 PM 45.5°F7.5°C 41.0°F5.0°C 84% 6.0 mph SSW9.7 kmh SSW 20.0 mph32.2 kmh 30.03 in1016.9 mb 0.00 in0.0 mm 0.00 in/hr0.0 mm/hr 0.00 in0.0 mm
03:40 PM 45.7°F7.6°C 41.2°F5.1°C 84% 11.0 mph SW17.7 kmh SW 21.0 mph33.8 kmh 30.03 in1016.9 mb 0.00 in0.0 mm 0.00 in/hr0.0 mm/hr 0.00 in0.0 mm
03:50 PM 45.9°F7.7°C 41.0°F5.0°C 83% 14.0 mph SSW22.5 kmh SSW 21.0 mph33.8 kmh 30.03 in1016.9 mb 0.00 in0.0 mm 0.00 in/hr0.0 mm/hr 0.00 in0.0 mm
04:00 PM 46.2°F7.9°C 41.0°F5.0°C 82% 12.0 mph SSW19.3 kmh SSW 17.0 mph27.4 kmh 30.03 in1016.9 mb 0.00 in0.0 mm 0.00 in/hr0.0 mm/hr 0.00 in0.0 mm
04:10 PM 46.5°F8.1°C 41.0°F5.0°C 81% 13.0 mph SSW20.9 kmh SSW 24.0 mph38.6 kmh 30.03 in1016.9 mb 0.00 in0.0 mm 0.00 in/hr0.0 mm/hr 0.00 in0.0 mm
04:20 PM 46.7°F8.2°C 41.2°F5.1°C 81% 5.0 mph WSW8.0 kmh WSW 15.0 mph24.1 kmh 30.03 in1016.9 mb 0.00 in0.0 mm 0.00 in/hr0.0 mm/hr 0.00 in0.0 mm
04:30 PM 46.9°F8.3°C 41.4°F5.2°C 81% 7.0 mph SW11.3 kmh SW 28.0 mph45.1 kmh 30.03 in1016.9 mb 0.00 in0.0 mm 0.00 in/hr0.0 mm/hr 0.00 in0.0 mm
04:40 PM 46.9°F8.3°C 41.4°F5.2°C 81% 11.0 mph S17.7 kmh S 22.0 mph35.4 kmh 30.02 in1016.6 mb 0.00 in0.0 mm 0.00 in/hr0.0 mm/hr 0.00 in0.0 mm
04:50 PM 46.8°F8.2°C 41.6°F5.3°C 82% 17.0 mph SW27.4 kmh SW 22.0 mph35.4 kmh 30.02 in1016.6 mb 0.00 in0.0 mm 0.00 in/hr0.0 mm/hr 0.00 in0.0 mm
05:00 PM 46.7°F8.2°C 41.8°F5.4°C 83% 5.0 mph S8.0 kmh S 23.0 mph37.0 kmh 30.01 in1016.3 mb 0.00 in0.0 mm 0.00 in/hr0.0 mm/hr 0.00 in0.0 mm
05:10 PM 46.8°F8.2°C 42.2°F5.7°C 84% 10.0 mph S16.1 kmh S 19.0 mph30.6 kmh 30.01 in1016.3 mb 0.00 in0.0 mm 0.00 in/hr0.0 mm/hr 0.00 in0.0 mm
05:20 PM 46.8°F8.2°C 42.5°F5.8°C 85% 14.0 mph SSW22.5 kmh SSW 19.0 mph30.6 kmh 30.01 in1016.3 mb 0.00 in0.0 mm 0.00 in/hr0.0 mm/hr 0.00 in0.0 mm
05:30 PM 46.8°F8.2°C 42.5°F5.8°C 85% 5.0 mph S8.0 kmh S 26.0 mph41.8 kmh 30.01 in1016.3 mb 0.00 in0.0 mm 0.00 in/hr0.0 mm/hr 0.00 in0.0 mm
05:40 PM 46.8°F8.2°C 42.5°F5.8°C 85% 9.0 mph S14.5 kmh S 14.0 mph22.5 kmh 30.00 in1015.9 mb 0.00 in0.0 mm 0.00 in/hr0.0 mm/hr 0.00 in0.0 mm
05:50 PM 46.8°F8.2°C 42.8°F6.0°C 86% 7.0 mph SSW11.3 kmh SSW 16.0 mph25.7 kmh 30.00 in1015.9 mb 0.00 in0.0 mm 0.00 in/hr0.0 mm/hr 0.00 in0.0 mm
06:00 PM 46.5°F8.1°C 43.1°F6.2°C 88% 12.0 mph S19.3 kmh S 18.0 mph29.0 kmh 30.00 in1015.9 mb 0.00 in0.0 mm 0.00 in/hr0.0 mm/hr 0.00 in0.0 mm
06:10 PM 46.0°F7.8°C 43.2°F6.2°C 90% 4.0 mph SW6.4 kmh SW 13.0 mph20.9 kmh 30.00 in1015.9 mb 0.00 in0.0 mm 0.00 in/hr0.0 mm/hr 0.00 in0.0 mm
06:20 PM 45.9°F7.7°C 43.4°F6.3°C 91% 16.0 mph S25.7 kmh S 16.0 mph25.7 kmh 30.00 in1015.9 mb 0.00 in0.0 mm 0.00 in/hr0.0 mm/hr 0.00 in0.0 mm
06:30 PM 45.8°F7.7°C 43.3°F6.3°C 91% 2.0 mph SSW3.2 kmh SSW 14.0 mph22.5 kmh 29.99 in1015.6 mb 0.00 in0.0 mm 0.00 in/hr0.0 mm/hr 0.00 in0.0 mm
06:40 PM 45.7°F7.6°C 43.5°F6.4°C 92% 6.0 mph S9.7 kmh S 13.0 mph20.9 kmh 29.99 in1015.6 mb 0.00 in0.0 mm 0.00 in/hr0.0 mm/hr 0.00 in0.0 mm
06:50 PM 45.6°F7.6°C 43.4°F6.3°C 92% 2.0 mph S3.2 kmh S 11.0 mph17.7 kmh 29.99 in1015.6 mb 0.00 in0.0 mm 0.00 in/hr0.0 mm/hr 0.00 in0.0 mm
07:00 PM 45.8°F7.7°C 43.6°F6.4°C 92% 6.0 mph SSW9.7 kmh SSW 11.0 mph17.7 kmh 29.99 in1015.6 mb 0.00 in0.0 mm 0.00 in/hr0.0 mm/hr 0.00 in0.0 mm
07:10 PM 46.1°F7.8°C 43.9°F6.6°C 92% 11.0 mph SSW17.7 kmh SSW 12.0 mph19.3 kmh 29.99 in1015.6 mb 0.00 in0.0 mm 0.00 in/hr0.0 mm/hr 0.00 in0.0 mm
07:20 PM 46.1°F7.8°C 43.9°F6.6°C 92% 9.0 mph SSW14.5 kmh SSW 10.0 mph16.1 kmh 29.99 in1015.6 mb 0.00 in0.0 mm 0.00 in/hr0.0 mm/hr 0.00 in0.0 mm
07:30 PM 46.1°F7.8°C 43.9°F6.6°C 92% 3.0 mph SSW4.8 kmh SSW 15.0 mph24.1 kmh 29.98 in1015.2 mb 0.00 in0.0 mm 0.00 in/hr0.0 mm/hr 0.00 in0.0 mm
07:40 PM 46.1°F7.8°C 43.9°F6.6°C 92% 6.0 mph SSW9.7 kmh SSW 11.0 mph17.7 kmh 29.99 in1015.6 mb 0.00 in0.0 mm 0.00 in/hr0.0 mm/hr 0.00 in0.0 mm
07:50 PM 46.1°F7.8°C 44.2°F6.8°C 93% 10.0 mph SSW16.1 kmh SSW 12.0 mph19.3 kmh 29.98 in1015.2 mb 0.00 in0.0 mm 0.00 in/hr0.0 mm/hr 0.00 in0.0 mm
08:00 PM 46.1°F7.8°C 44.2°F6.8°C 93% 2.0 mph S3.2 kmh S 11.0 mph17.7 kmh 29.99 in1015.6 mb 0.00 in0.0 mm 0.00 in/hr0.0 mm/hr 0.00 in0.0 mm
08:10 PM 46.0°F7.8°C 44.1°F6.7°C 93% 1.0 mph S1.6 kmh S 11.0 mph17.7 kmh 29.98 in1015.2 mb 0.00 in0.0 mm 0.00 in/hr0.0 mm/hr 0.00 in0.0 mm
08:20 PM 46.0°F7.8°C 44.1°F6.7°C 93% 4.0 mph S6.4 kmh S 12.0 mph19.3 kmh 29.98 in1015.2 mb 0.01 in0.3 mm 0.06 in/hr1.5 mm/hr 0.01 in0.3 mm
08:30 PM 46.0°F7.8°C 44.1°F6.7°C 93% 5.0 mph S8.0 kmh S 10.0 mph16.1 kmh 29.98 in1015.2 mb 0.01 in0.3 mm 0.00 in/hr0.0 mm/hr 0.01 in0.3 mm
08:40 PM 46.1°F7.8°C 44.5°F6.9°C 94% Calm Calm 7.0 mph11.3 kmh 29.98 in1015.2 mb 0.01 in0.3 mm 0.00 in/hr0.0 mm/hr 0.01 in0.3 mm
08:50 PM 46.4°F8.0°C 44.8°F7.1°C 94% 2.0 mph S3.2 kmh S 7.0 mph11.3 kmh 29.97 in1014.9 mb 0.01 in0.3 mm 0.00 in/hr0.0 mm/hr 0.01 in0.3 mm
09:01 PM 46.6°F8.1°C 45.0°F7.2°C 94% 1.0 mph SSE1.6 kmh SSE 10.0 mph16.1 kmh 29.97 in1014.9 mb 0.01 in0.3 mm 0.00 in/hr0.0 mm/hr 0.01 in0.3 mm
09:10 PM 46.8°F8.2°C 45.2°F7.3°C 94% 2.0 mph S3.2 kmh S 9.0 mph14.5 kmh 29.97 in1014.9 mb 0.02 in0.5 mm 0.07 in/hr1.8 mm/hr 0.02 in0.5 mm
09:20 PM 46.9°F8.3°C 45.3°F7.4°C 94% 4.0 mph S6.4 kmh S 8.0 mph12.9 kmh 29.97 in1014.9 mb 0.01 in0.3 mm 0.00 in/hr0.0 mm/hr 0.02 in0.5 mm
09:30 PM 46.9°F8.3°C 45.3°F7.4°C 94% 3.0 mph S4.8 kmh S 7.0 mph11.3 kmh 29.97 in1014.9 mb 0.01 in0.3 mm 0.00 in/hr0.0 mm/hr 0.02 in0.5 mm
09:40 PM 47.3°F8.5°C 45.7°F7.6°C 94% 4.0 mph S6.4 kmh S 7.0 mph11.3 kmh 29.97 in1014.9 mb 0.01 in0.3 mm 0.00 in/hr0.0 mm/hr 0.02 in0.5 mm
09:50 PM 47.6°F8.7°C 46.0°F7.8°C 94% 6.0 mph S9.7 kmh S 10.0 mph16.1 kmh 29.96 in1014.6 mb 0.01 in0.3 mm 0.00 in/hr0.0 mm/hr 0.02 in0.5 mm
10:00 PM 48.0°F8.9°C 46.4°F8.0°C 94% 5.0 mph S8.0 kmh S 10.0 mph16.1 kmh 29.96 in1014.6 mb 0.01 in0.3 mm 0.00 in/hr0.0 mm/hr 0.02 in0.5 mm
10:10 PM 48.4°F9.1°C 46.8°F8.2°C 94% 4.0 mph S6.4 kmh S 10.0 mph16.1 kmh 29.96 in1014.6 mb 0.00 in0.0 mm 0.00 in/hr0.0 mm/hr 0.02 in0.5 mm
10:20 PM 48.6°F9.2°C 46.7°F8.2°C 93% Calm Calm 10.0 mph16.1 kmh 29.96 in1014.6 mb 0.00 in0.0 mm 0.00 in/hr0.0 mm/hr 0.02 in0.5 mm
10:30 PM 49.2°F9.6°C 47.0°F8.3°C 92% 5.0 mph S8.0 kmh S 11.0 mph17.7 kmh 29.96 in1014.6 mb 0.00 in0.0 mm 0.00 in/hr0.0 mm/hr 0.02 in0.5 mm
10:40 PM 49.7°F9.8°C 47.2°F8.4°C 91% 2.0 mph S3.2 kmh S 11.0 mph17.7 kmh 29.96 in1014.6 mb 0.00 in0.0 mm 0.00 in/hr0.0 mm/hr 0.02 in0.5 mm
10:50 PM 50.2°F10.1°C 47.7°F8.7°C 91% 3.0 mph SSW4.8 kmh SSW 12.0 mph19.3 kmh 29.95 in1014.2 mb 0.00 in0.0 mm 0.00 in/hr0.0 mm/hr 0.02 in0.5 mm
11:01 PM 50.3°F10.2°C 47.8°F8.8°C 91% 5.0 mph S8.0 kmh S 11.0 mph17.7 kmh 29.95 in1014.2 mb 0.01 in0.3 mm 0.01 in/hr0.3 mm/hr 0.03 in0.8 mm
11:10 PM 50.1°F10.1°C 47.6°F8.7°C 91% 5.0 mph S8.0 kmh S 9.0 mph14.5 kmh 29.95 in1014.2 mb 0.01 in0.3 mm 0.00 in/hr0.0 mm/hr 0.03 in0.8 mm
11:20 PM 49.9°F9.9°C 47.4°F8.6°C 91% 6.0 mph S9.7 kmh S 9.0 mph14.5 kmh 29.95 in1014.2 mb 0.01 in0.3 mm 0.00 in/hr0.0 mm/hr 0.03 in0.8 mm
11:30 PM 50.0°F10.0°C 47.5°F8.6°C 91% 4.0 mph S6.4 kmh S 6.0 mph9.7 kmh 29.95 in1014.2 mb 0.01 in0.3 mm 0.00 in/hr0.0 mm/hr 0.03 in0.8 mm
11:40 PM 50.3°F10.2°C 47.8°F8.8°C 91% 6.0 mph S9.7 kmh S 9.0 mph14.5 kmh 29.94 in1013.9 mb 0.01 in0.3 mm 0.00 in/hr0.0 mm/hr 0.03 in0.8 mm
11:50 PM 50.4°F10.2°C 47.9°F8.8°C 91% 3.0 mph S4.8 kmh S 9.0 mph14.5 kmh 29.94 in1013.9 mb 0.01 in0.3 mm 0.00 in/hr0.0 mm/hr 0.03 in0.8 mm